sensor_id;sensor_type;location;lat;lon;timestamp;temperature;humidity
16273;DHT22;8244;50.044;9.006;2022-07-23T00:01:33;22.30;99.90
16273;DHT22;8244;50.044;9.006;2022-07-23T00:06:36;22.20;99.90
16273;DHT22;8244;50.044;9.006;2022-07-23T00:11:38;22.20;99.90
16273;DHT22;8244;50.044;9.006;2022-07-23T00:16:40;22.10;99.90
16273;DHT22;8244;50.044;9.006;2022-07-23T00:21:43;22.00;99.90
16273;DHT22;8244;50.044;9.006;2022-07-23T00:26:45;21.90;99.90
16273;DHT22;8244;50.044;9.006;2022-07-23T00:31:47;21.80;99.90
16273;DHT22;8244;50.044;9.006;2022-07-23T00:36:50;21.80;99.90
16273;DHT22;8244;50.044;9.006;2022-07-23T00:41:54;21.70;99.90
16273;DHT22;8244;50.044;9.006;2022-07-23T00:46:57;21.70;99.90
16273;DHT22;8244;50.044;9.006;2022-07-23T00:52:02;21.60;99.90
16273;DHT22;8244;50.044;9.006;2022-07-23T00:57:04;21.50;99.90
16273;DHT22;8244;50.044;9.006;2022-07-23T01:02:06;21.50;99.90
16273;DHT22;8244;50.044;9.006;2022-07-23T01:07:09;21.40;99.90
16273;DHT22;8244;50.044;9.006;2022-07-23T01:12:11;21.40;99.90
16273;DHT22;8244;50.044;9.006;2022-07-23T01:17:13;21.30;99.90
16273;DHT22;8244;50.044;9.006;2022-07-23T01:22:18;21.20;99.90
16273;DHT22;8244;50.044;9.006;2022-07-23T01:27:22;21.20;99.90
16273;DHT22;8244;50.044;9.006;2022-07-23T01:32:23;21.00;99.90
16273;DHT22;8244;50.044;9.006;2022-07-23T01:37:25;20.90;99.90
16273;DHT22;8244;50.044;9.006;2022-07-23T01:42:28;20.90;99.90
16273;DHT22;8244;50.044;9.006;2022-07-23T01:47:30;20.90;99.90
16273;DHT22;8244;50.044;9.006;2022-07-23T01:52:32;20.80;99.90
16273;DHT22;8244;50.044;9.006;2022-07-23T01:57:35;20.70;99.90
16273;DHT22;8244;50.044;9.006;2022-07-23T02:02:36;20.70;99.90
16273;DHT22;8244;50.044;9.006;2022-07-23T02:07:38;20.60;99.90
16273;DHT22;8244;50.044;9.006;2022-07-23T02:12:41;20.60;99.90
16273;DHT22;8244;50.044;9.006;2022-07-23T02:17:43;20.60;99.90
16273;DHT22;8244;50.044;9.006;2022-07-23T02:22:45;20.50;99.90
16273;DHT22;8244;50.044;9.006;2022-07-23T02:27:48;20.40;99.90
16273;DHT22;8244;50.044;9.006;2022-07-23T02:32:50;20.30;99.90
16273;DHT22;8244;50.044;9.006;2022-07-23T02:37:51;20.30;99.90
16273;DHT22;8244;50.044;9.006;2022-07-23T02:42:54;20.30;99.90
16273;DHT22;8244;50.044;9.006;2022-07-23T02:47:56;20.20;99.90
16273;DHT22;8244;50.044;9.006;2022-07-23T02:52:58;20.10;99.90
16273;DHT22;8244;50.044;9.006;2022-07-23T02:58:01;20.00;99.90
16273;DHT22;8244;50.044;9.006;2022-07-23T03:03:03;19.90;99.90
16273;DHT22;8244;50.044;9.006;2022-07-23T03:08:05;19.90;99.90
16273;DHT22;8244;50.044;9.006;2022-07-23T03:13:08;19.90;99.90
16273;DHT22;8244;50.044;9.006;2022-07-23T03:18:10;19.80;99.90
16273;DHT22;8244;50.044;9.006;2022-07-23T03:23:11;19.70;99.90
16273;DHT22;8244;50.044;9.006;2022-07-23T03:28:15;19.60;99.90
16273;DHT22;8244;50.044;9.006;2022-07-23T03:33:18;19.50;99.90
16273;DHT22;8244;50.044;9.006;2022-07-23T03:38:20;19.40;99.90
16273;DHT22;8244;50.044;9.006;2022-07-23T03:43:23;19.30;99.90
16273;DHT22;8244;50.044;9.006;2022-07-23T03:48:26;19.30;99.90
16273;DHT22;8244;50.044;9.006;2022-07-23T03:53:28;19.20;99.90
16273;DHT22;8244;50.044;9.006;2022-07-23T03:58:31;19.20;99.90
16273;DHT22;8244;50.044;9.006;2022-07-23T04:03:33;19.10;99.90
16273;DHT22;8244;50.044;9.006;2022-07-23T04:08:34;19.10;99.90
16273;DHT22;8244;50.044;9.006;2022-07-23T04:13:37;19.00;99.90
16273;DHT22;8244;50.044;9.006;2022-07-23T04:18:39;19.00;99.90
16273;DHT22;8244;50.044;9.006;2022-07-23T04:23:41;19.10;99.90
16273;DHT22;8244;50.044;9.006;2022-07-23T04:28:44;19.10;99.90
16273;DHT22;8244;50.044;9.006;2022-07-23T04:33:46;19.10;99.90
16273;DHT22;8244;50.044;9.006;2022-07-23T04:38:47;19.10;99.90
16273;DHT22;8244;50.044;9.006;2022-07-23T04:43:50;19.30;99.90
16273;DHT22;8244;50.044;9.006;2022-07-23T04:48:53;19.40;99.90
16273;DHT22;8244;50.044;9.006;2022-07-23T04:53:55;19.50;99.90
16273;DHT22;8244;50.044;9.006;2022-07-23T04:58:58;19.40;99.90
16273;DHT22;8244;50.044;9.006;2022-07-23T05:03:59;19.30;99.90
16273;DHT22;8244;50.044;9.006;2022-07-23T05:09:01;19.30;99.90
16273;DHT22;8244;50.044;9.006;2022-07-23T05:14:04;19.50;99.90
16273;DHT22;8244;50.044;9.006;2022-07-23T05:19:07;20.00;99.90
16273;DHT22;8244;50.044;9.006;2022-07-23T05:24:10;20.60;99.90
16273;DHT22;8244;50.044;9.006;2022-07-23T05:29:13;20.80;99.90
16273;DHT22;8244;50.044;9.006;2022-07-23T05:34:15;20.90;99.90
16273;DHT22;8244;50.044;9.006;2022-07-23T05:39:17;20.80;99.90
16273;DHT22;8244;50.044;9.006;2022-07-23T05:44:20;20.70;99.90
16273;DHT22;8244;50.044;9.006;2022-07-23T05:49:22;20.60;99.90
16273;DHT22;8244;50.044;9.006;2022-07-23T05:54:24;20.60;99.90
16273;DHT22;8244;50.044;9.006;2022-07-23T05:59:27;20.60;99.90
16273;DHT22;8244;50.044;9.006;2022-07-23T06:04:29;20.60;99.90
16273;DHT22;8244;50.044;9.006;2022-07-23T06:09:31;20.60;99.90
16273;DHT22;8244;50.044;9.006;2022-07-23T06:14:34;20.80;99.90
16273;DHT22;8244;50.044;9.006;2022-07-23T06:19:35;20.90;99.90
16273;DHT22;8244;50.044;9.006;2022-07-23T06:24:37;21.10;99.90
16273;DHT22;8244;50.044;9.006;2022-07-23T06:29:41;21.40;99.90
16273;DHT22;8244;50.044;9.006;2022-07-23T06:34:42;21.60;99.90
16273;DHT22;8244;50.044;9.006;2022-07-23T06:39:44;21.80;99.90
16273;DHT22;8244;50.044;9.006;2022-07-23T06:44:47;22.30;99.90
16273;DHT22;8244;50.044;9.006;2022-07-23T06:49:50;22.60;99.90
16273;DHT22;8244;50.044;9.006;2022-07-23T06:54:51;22.70;99.90
16273;DHT22;8244;50.044;9.006;2022-07-23T06:59:54;22.90;99.90
16273;DHT22;8244;50.044;9.006;2022-07-23T07:04:56;23.10;99.90
16273;DHT22;8244;50.044;9.006;2022-07-23T07:09:58;23.10;99.90
16273;DHT22;8244;50.044;9.006;2022-07-23T07:15:01;23.70;99.90
16273;DHT22;8244;50.044;9.006;2022-07-23T07:20:04;24.60;99.90
16273;DHT22;8244;50.044;9.006;2022-07-23T07:25:07;25.50;99.90
16273;DHT22;8244;50.044;9.006;2022-07-23T07:30:11;26.40;99.90
16273;DHT22;8244;50.044;9.006;2022-07-23T07:35:14;27.30;99.90
16273;DHT22;8244;50.044;9.006;2022-07-23T07:40:16;28.10;99.90
16273;DHT22;8244;50.044;9.006;2022-07-23T07:45:20;28.90;99.40
16273;DHT22;8244;50.044;9.006;2022-07-23T07:50:22;29.60;95.50
16273;DHT22;8244;50.044;9.006;2022-07-23T07:55:24;30.30;94.40
16273;DHT22;8244;50.044;9.006;2022-07-23T08:00:27;30.90;92.20
16273;DHT22;8244;50.044;9.006;2022-07-23T08:05:29;31.60;90.60
16273;DHT22;8244;50.044;9.006;2022-07-23T08:10:31;32.20;88.60
16273;DHT22;8244;50.044;9.006;2022-07-23T08:15:34;32.80;85.10
16273;DHT22;8244;50.044;9.006;2022-07-23T08:20:37;33.30;84.00
16273;DHT22;8244;50.044;9.006;2022-07-23T08:25:39;33.70;77.40
16273;DHT22;8244;50.044;9.006;2022-07-23T08:30:44;33.90;77.90
16273;DHT22;8244;50.044;9.006;2022-07-23T08:35:48;34.10;76.60
16273;DHT22;8244;50.044;9.006;2022-07-23T08:40:51;34.50;72.70
16273;DHT22;8244;50.044;9.006;2022-07-23T08:45:56;33.80;75.00
16273;DHT22;8244;50.044;9.006;2022-07-23T08:51:00;33.30;75.60
16273;DHT22;8244;50.044;9.006;2022-07-23T08:56:03;32.80;76.10
16273;DHT22;8244;50.044;9.006;2022-07-23T09:01:07;32.60;75.90
16273;DHT22;8244;50.044;9.006;2022-07-23T09:06:09;32.60;76.40
16273;DHT22;8244;50.044;9.006;2022-07-23T09:11:12;33.00;77.80
16273;DHT22;8244;50.044;9.006;2022-07-23T09:16:18;33.40;75.70
16273;DHT22;8244;50.044;9.006;2022-07-23T09:21:23;34.00;71.60
16273;DHT22;8244;50.044;9.006;2022-07-23T09:26:35;33.60;73.00
16273;DHT22;8244;50.044;9.006;2022-07-23T09:31:48;34.30;74.50
16273;DHT22;8244;50.044;9.006;2022-07-23T09:36:51;35.00;70.40
16273;DHT22;8244;50.044;9.006;2022-07-23T09:41:53;35.40;69.60
16273;DHT22;8244;50.044;9.006;2022-07-23T09:46:59;36.00;66.90
16273;DHT22;8244;50.044;9.006;2022-07-23T09:52:02;36.30;67.50
16273;DHT22;8244;50.044;9.006;2022-07-23T09:57:06;37.00;67.90
16273;DHT22;8244;50.044;9.006;2022-07-23T10:02:11;37.80;64.70
16273;DHT22;8244;50.044;9.006;2022-07-23T10:07:14;38.20;60.80
16273;DHT22;8244;50.044;9.006;2022-07-23T10:12:19;38.40;62.00
16273;DHT22;8244;50.044;9.006;2022-07-23T10:17:30;38.80;59.40
16273;DHT22;8244;50.044;9.006;2022-07-23T10:22:34;39.10;59.40
16273;DHT22;8244;50.044;9.006;2022-07-23T10:28:04;39.40;59.50
16273;DHT22;8244;50.044;9.006;2022-07-23T10:33:20;39.20;58.20
16273;DHT22;8244;50.044;9.006;2022-07-23T10:38:27;39.30;57.00
16273;DHT22;8244;50.044;9.006;2022-07-23T10:43:31;39.40;56.20
16273;DHT22;8244;50.044;9.006;2022-07-23T10:48:35;39.80;57.10
16273;DHT22;8244;50.044;9.006;2022-07-23T10:53:56;39.70;55.50
16273;DHT22;8244;50.044;9.006;2022-07-23T10:59:03;38.90;56.80
16273;DHT22;8244;50.044;9.006;2022-07-23T11:04:07;39.10;55.10
16273;DHT22;8244;50.044;9.006;2022-07-23T11:09:23;39.20;56.40
16273;DHT22;8244;50.044;9.006;2022-07-23T11:14:59;39.70;54.50
16273;DHT22;8244;50.044;9.006;2022-07-23T11:20:16;39.60;54.10
16273;DHT22;8244;50.044;9.006;2022-07-23T11:25:33;39.70;52.60
16273;DHT22;8244;50.044;9.006;2022-07-23T11:30:40;39.30;54.20
16273;DHT22;8244;50.044;9.006;2022-07-23T11:35:45;39.20;53.80
16273;DHT22;8244;50.044;9.006;2022-07-23T11:40:49;38.90;54.00
16273;DHT22;8244;50.044;9.006;2022-07-23T11:45:53;39.30;53.80
16273;DHT22;8244;50.044;9.006;2022-07-23T11:50:57;39.70;53.30
16273;DHT22;8244;50.044;9.006;2022-07-23T11:56:04;40.00;51.50
16273;DHT22;8244;50.044;9.006;2022-07-23T12:01:06;40.40;53.00
16273;DHT22;8244;50.044;9.006;2022-07-23T12:06:09;40.90;52.20
16273;DHT22;8244;50.044;9.006;2022-07-23T12:11:12;41.30;50.60
16273;DHT22;8244;50.044;9.006;2022-07-23T12:16:14;41.00;50.10
16273;DHT22;8244;50.044;9.006;2022-07-23T12:21:17;41.10;49.50
16273;DHT22;8244;50.044;9.006;2022-07-23T12:26:19;40.70;50.60
16273;DHT22;8244;50.044;9.006;2022-07-23T12:31:25;40.70;48.90
16273;DHT22;8244;50.044;9.006;2022-07-23T12:36:38;40.40;50.90
16273;DHT22;8244;50.044;9.006;2022-07-23T12:41:53;40.50;48.70
16273;DHT22;8244;50.044;9.006;2022-07-23T12:46:56;40.50;50.20
16273;DHT22;8244;50.044;9.006;2022-07-23T12:51:59;40.80;50.60
16273;DHT22;8244;50.044;9.006;2022-07-23T12:57:02;40.90;47.60
16273;DHT22;8244;50.044;9.006;2022-07-23T13:02:03;40.80;48.60
16273;DHT22;8244;50.044;9.006;2022-07-23T13:07:06;40.70;49.00
16273;DHT22;8244;50.044;9.006;2022-07-23T13:12:08;40.70;48.20
16273;DHT22;8244;50.044;9.006;2022-07-23T13:17:10;40.40;48.80
16273;DHT22;8244;50.044;9.006;2022-07-23T13:22:13;40.20;48.50
16273;DHT22;8244;50.044;9.006;2022-07-23T13:27:15;40.40;50.20
16273;DHT22;8244;50.044;9.006;2022-07-23T13:32:17;40.40;48.20
16273;DHT22;8244;50.044;9.006;2022-07-23T13:37:20;39.50;49.40
16273;DHT22;8244;50.044;9.006;2022-07-23T13:42:22;39.00;50.60
16273;DHT22;8244;50.044;9.006;2022-07-23T13:47:23;38.60;50.70
16273;DHT22;8244;50.044;9.006;2022-07-23T13:52:26;38.50;51.90
16273;DHT22;8244;50.044;9.006;2022-07-23T13:57:28;38.70;51.20
16273;DHT22;8244;50.044;9.006;2022-07-23T14:02:30;39.10;49.00
16273;DHT22;8244;50.044;9.006;2022-07-23T14:07:33;39.10;49.90
16273;DHT22;8244;50.044;9.006;2022-07-23T14:12:35;39.10;50.40
16273;DHT22;8244;50.044;9.006;2022-07-23T14:17:38;39.10;50.60
16273;DHT22;8244;50.044;9.006;2022-07-23T14:22:42;38.90;50.00
16273;DHT22;8244;50.044;9.006;2022-07-23T14:27:44;38.30;50.80
16273;DHT22;8244;50.044;9.006;2022-07-23T14:32:46;37.70;51.60
16273;DHT22;8244;50.044;9.006;2022-07-23T14:37:49;37.60;51.30
16273;DHT22;8244;50.044;9.006;2022-07-23T14:42:51;37.40;52.10
16273;DHT22;8244;50.044;9.006;2022-07-23T14:47:53;37.60;51.70
16273;DHT22;8244;50.044;9.006;2022-07-23T14:52:57;37.60;51.30
16273;DHT22;8244;50.044;9.006;2022-07-23T14:57:58;37.50;50.00
16273;DHT22;8244;50.044;9.006;2022-07-23T15:03:00;37.20;50.40
16273;DHT22;8244;50.044;9.006;2022-07-23T15:08:04;37.40;51.50
16273;DHT22;8244;50.044;9.006;2022-07-23T15:13:05;37.40;51.70
16273;DHT22;8244;50.044;9.006;2022-07-23T15:18:07;37.10;51.00
16273;DHT22;8244;50.044;9.006;2022-07-23T15:23:10;36.90;50.80
16273;DHT22;8244;50.044;9.006;2022-07-23T15:28:12;36.80;50.90
16273;DHT22;8244;50.044;9.006;2022-07-23T15:33:14;36.20;51.50
16273;DHT22;8244;50.044;9.006;2022-07-23T15:38:17;35.70;52.20
16273;DHT22;8244;50.044;9.006;2022-07-23T15:43:18;35.60;53.10
16273;DHT22;8244;50.044;9.006;2022-07-23T15:48:21;35.60;52.80
16273;DHT22;8244;50.044;9.006;2022-07-23T15:53:24;35.70;53.30
16273;DHT22;8244;50.044;9.006;2022-07-23T15:58:27;35.40;52.80
16273;DHT22;8244;50.044;9.006;2022-07-23T16:03:30;34.80;54.30
16273;DHT22;8244;50.044;9.006;2022-07-23T16:08:34;34.70;54.00
16273;DHT22;8244;50.044;9.006;2022-07-23T16:13:36;34.70;55.20
16273;DHT22;8244;50.044;9.006;2022-07-23T16:18:38;34.20;55.20
16273;DHT22;8244;50.044;9.006;2022-07-23T16:23:42;33.90;56.40
16273;DHT22;8244;50.044;9.006;2022-07-23T16:28:44;33.70;57.20
16273;DHT22;8244;50.044;9.006;2022-07-23T16:33:46;33.50;54.80
16273;DHT22;8244;50.044;9.006;2022-07-23T16:38:49;33.40;55.50
16273;DHT22;8244;50.044;9.006;2022-07-23T16:43:51;33.30;56.10
16273;DHT22;8244;50.044;9.006;2022-07-23T16:48:53;33.30;57.90
16273;DHT22;8244;50.044;9.006;2022-07-23T16:53:56;33.00;56.40
16273;DHT22;8244;50.044;9.006;2022-07-23T16:58:58;32.70;56.70
16273;DHT22;8244;50.044;9.006;2022-07-23T17:04:00;32.50;56.20
16273;DHT22;8244;50.044;9.006;2022-07-23T17:09:04;32.30;56.80
16273;DHT22;8244;50.044;9.006;2022-07-23T17:14:06;32.20;56.20
16273;DHT22;8244;50.044;9.006;2022-07-23T17:19:08;32.00;55.90
16273;DHT22;8244;50.044;9.006;2022-07-23T17:24:11;31.70;56.40
16273;DHT22;8244;50.044;9.006;2022-07-23T17:29:13;31.50;56.60
16273;DHT22;8244;50.044;9.006;2022-07-23T17:34:15;31.30;57.70
16273;DHT22;8244;50.044;9.006;2022-07-23T17:39:18;31.10;57.40
16273;DHT22;8244;50.044;9.006;2022-07-23T17:44:20;30.90;57.20
16273;DHT22;8244;50.044;9.006;2022-07-23T17:49:22;30.70;57.50
16273;DHT22;8244;50.044;9.006;2022-07-23T17:54:25;30.60;58.20
16273;DHT22;8244;50.044;9.006;2022-07-23T17:59:27;30.30;59.00
16273;DHT22;8244;50.044;9.006;2022-07-23T18:04:30;30.10;58.80
16273;DHT22;8244;50.044;9.006;2022-07-23T18:09:33;29.90;59.30
16273;DHT22;8244;50.044;9.006;2022-07-23T18:14:35;29.70;59.40
16273;DHT22;8244;50.044;9.006;2022-07-23T18:19:36;29.50;60.70
16273;DHT22;8244;50.044;9.006;2022-07-23T18:24:40;29.40;61.10
16273;DHT22;8244;50.044;9.006;2022-07-23T18:29:42;29.20;60.90
16273;DHT22;8244;50.044;9.006;2022-07-23T18:34:45;29.00;61.20
16273;DHT22;8244;50.044;9.006;2022-07-23T18:39:48;28.80;61.40
16273;DHT22;8244;50.044;9.006;2022-07-23T18:44:50;28.70;62.00
16273;DHT22;8244;50.044;9.006;2022-07-23T18:49:51;28.50;62.70
16273;DHT22;8244;50.044;9.006;2022-07-23T18:54:54;28.40;62.70
16273;DHT22;8244;50.044;9.006;2022-07-23T18:59:56;28.20;63.10
16273;DHT22;8244;50.044;9.006;2022-07-23T19:04:58;28.10;63.80
16273;DHT22;8244;50.044;9.006;2022-07-23T19:10:02;27.90;64.00
16273;DHT22;8244;50.044;9.006;2022-07-23T19:15:05;27.80;64.80
16273;DHT22;8244;50.044;9.006;2022-07-23T19:20:09;27.50;64.80
16273;DHT22;8244;50.044;9.006;2022-07-23T19:25:12;27.40;65.70
16273;DHT22;8244;50.044;9.006;2022-07-23T19:30:14;27.10;65.50
16273;DHT22;8244;50.044;9.006;2022-07-23T19:35:16;27.00;65.90
16273;DHT22;8244;50.044;9.006;2022-07-23T19:40:19;26.80;66.70
16273;DHT22;8244;50.044;9.006;2022-07-23T19:45:20;26.60;66.70
16273;DHT22;8244;50.044;9.006;2022-07-23T19:50:23;26.40;68.00
16273;DHT22;8244;50.044;9.006;2022-07-23T19:55:26;26.30;68.60
16273;DHT22;8244;50.044;9.006;2022-07-23T20:00:28;26.10;68.40
16273;DHT22;8244;50.044;9.006;2022-07-23T20:05:29;25.90;69.20
16273;DHT22;8244;50.044;9.006;2022-07-23T20:10:33;25.80;69.30
16273;DHT22;8244;50.044;9.006;2022-07-23T20:15:34;25.60;69.50
16273;DHT22;8244;50.044;9.006;2022-07-23T20:20:36;25.40;70.20
16273;DHT22;8244;50.044;9.006;2022-07-23T20:25:39;25.20;71.60
16273;DHT22;8244;50.044;9.006;2022-07-23T20:30:41;25.10;72.50
16273;DHT22;8244;50.044;9.006;2022-07-23T20:35:45;24.90;72.80
16273;DHT22;8244;50.044;9.006;2022-07-23T20:40:49;24.70;73.80
16273;DHT22;8244;50.044;9.006;2022-07-23T20:45:51;24.60;75.70
16273;DHT22;8244;50.044;9.006;2022-07-23T20:50:52;24.40;75.90
16273;DHT22;8244;50.044;9.006;2022-07-23T20:55:56;24.30;76.80
16273;DHT22;8244;50.044;9.006;2022-07-23T21:00:59;24.10;77.90
16273;DHT22;8244;50.044;9.006;2022-07-23T21:06:01;24.00;78.50
16273;DHT22;8244;50.044;9.006;2022-07-23T21:11:05;23.80;78.90
16273;DHT22;8244;50.044;9.006;2022-07-23T21:16:07;23.60;78.90
16273;DHT22;8244;50.044;9.006;2022-07-23T21:21:09;23.50;80.30
16273;DHT22;8244;50.044;9.006;2022-07-23T21:26:15;23.40;81.70
16273;DHT22;8244;50.044;9.006;2022-07-23T21:31:18;23.30;82.80
16273;DHT22;8244;50.044;9.006;2022-07-23T21:36:20;23.30;83.20
16273;DHT22;8244;50.044;9.006;2022-07-23T21:41:23;23.20;83.40
16273;DHT22;8244;50.044;9.006;2022-07-23T21:46:29;23.20;84.60
16273;DHT22;8244;50.044;9.006;2022-07-23T21:51:31;23.20;86.60
16273;DHT22;8244;50.044;9.006;2022-07-23T21:56:34;23.20;86.10
16273;DHT22;8244;50.044;9.006;2022-07-23T22:01:37;23.20;86.60
16273;DHT22;8244;50.044;9.006;2022-07-23T22:06:39;23.10;85.90
16273;DHT22;8244;50.044;9.006;2022-07-23T22:11:42;23.10;85.70
16273;DHT22;8244;50.044;9.006;2022-07-23T22:16:43;23.00;86.00
16273;DHT22;8244;50.044;9.006;2022-07-23T22:21:45;23.00;87.00
16273;DHT22;8244;50.044;9.006;2022-07-23T22:26:48;22.90;87.00
16273;DHT22;8244;50.044;9.006;2022-07-23T22:31:50;22.80;87.50
16273;DHT22;8244;50.044;9.006;2022-07-23T22:36:52;22.70;88.50
16273;DHT22;8244;50.044;9.006;2022-07-23T22:41:55;22.60;89.50
16273;DHT22;8244;50.044;9.006;2022-07-23T22:46:57;22.50;90.00
16273;DHT22;8244;50.044;9.006;2022-07-23T22:51:58;22.40;90.00
16273;DHT22;8244;50.044;9.006;2022-07-23T22:57:02;22.30;90.00
16273;DHT22;8244;50.044;9.006;2022-07-23T23:02:03;22.20;90.50
16273;DHT22;8244;50.044;9.006;2022-07-23T23:07:05;22.10;91.10
16273;DHT22;8244;50.044;9.006;2022-07-23T23:12:09;21.90;91.00
16273;DHT22;8244;50.044;9.006;2022-07-23T23:17:11;21.80;91.00
16273;DHT22;8244;50.044;9.006;2022-07-23T23:22:12;21.70;91.10
16273;DHT22;8244;50.044;9.006;2022-07-23T23:27:15;21.60;91.70
16273;DHT22;8244;50.044;9.006;2022-07-23T23:32:17;21.50;92.00
16273;DHT22;8244;50.044;9.006;2022-07-23T23:37:19;21.40;92.20
16273;DHT22;8244;50.044;9.006;2022-07-23T23:42:22;21.30;92.60
16273;DHT22;8244;50.044;9.006;2022-07-23T23:47:24;21.20;93.00
16273;DHT22;8244;50.044;9.006;2022-07-23T23:52:25;21.10;92.60
16273;DHT22;8244;50.044;9.006;2022-07-23T23:57:28;21.00;93.00
